Time;durP1;ratioP1;P1;durP2;ratioP2;P2;SDS_P1;SDS_P2;PMS_P1;PMS_P2;Temp;Humidity;BMP_temperature;BMP_pressure;BME280_temperature;BME280_humidity;BME280_pressure;Samples;Min_cycle;Max_cycle;Signal;HPM_P1;HPM_P2
2021/10/19 00:01:25;;;;;;;55.75;34.35;;;;;;;9.62;100.00;99725.23;2181901;78;21568;-82
2021/10/19 00:04:26;;;;;;;53.30;31.65;;;;;;;9.60;100.00;99725.88;2139947;83;21021;-81
2021/10/19 00:07:27;;;;;;;53.33;33.88;;;;;;;9.64;100.00;99727.70;2146017;83;21082;-82
2021/10/19 00:10:27;;;;;;;55.60;35.60;;;;;;;9.64;100.00;99725.08;2145867;83;21013;-82
2021/10/19 00:13:28;;;;;;;54.13;35.33;;;;;;;9.63;100.00;99729.49;2146110;83;21025;-81
2021/10/19 00:16:29;;;;;;;55.25;32.80;;;;;;;9.58;100.00;99734.33;2146125;83;20970;-82
2021/10/19 00:19:30;;;;;;;54.10;32.78;;;;;;;9.51;100.00;99729.84;2146256;83;21556;-81
2021/10/19 00:22:31;;;;;;;55.80;33.65;;;;;;;9.41;100.00;99720.75;2146067;83;21030;-82
2021/10/19 00:25:31;;;;;;;52.15;33.33;;;;;;;9.35;100.00;99716.13;2146092;83;21662;-82
2021/10/19 00:28:32;;;;;;;60.35;33.40;;;;;;;9.30;100.00;99717.87;2146114;83;21022;-82
2021/10/19 00:31:33;;;;;;;50.17;31.33;;;;;;;9.24;100.00;99725.01;2146230;83;21521;-82
2021/10/19 00:34:34;;;;;;;56.58;33.42;;;;;;;9.22;100.00;99719.56;2145988;83;21054;-81
2021/10/19 00:37:35;;;;;;;54.25;33.42;;;;;;;9.19;100.00;99719.38;2179044;82;21446;-82
2021/10/19 00:40:36;;;;;;;55.35;34.58;;;;;;;9.21;100.00;99723.97;2179091;82;21087;-81
2021/10/19 00:43:37;;;;;;;57.43;34.67;;;;;;;9.26;100.00;99726.16;2179056;82;21012;-82
2021/10/19 00:46:40;;;;;;;56.88;34.78;;;;;;;9.30;100.00;99725.70;2179066;82;20967;-81
2021/10/19 00:49:40;;;;;;;54.60;33.38;;;;;;;9.35;100.00;99727.41;2179237;82;21003;-83
2021/10/19 00:52:41;;;;;;;52.78;33.25;;;;;;;9.39;100.00;99719.59;2179730;82;20992;-83
2021/10/19 00:55:42;;;;;;;55.38;35.17;;;;;;;9.39;100.00;99719.59;2179152;82;21045;-82
2021/10/19 00:58:43;;;;;;;58.70;36.17;;;;;;;9.33;100.00;99714.16;2179378;82;21483;-82
2021/10/19 01:01:44;;;;;;;58.92;35.95;;;;;;;9.26;100.00;99720.45;2178873;82;21071;-82
2021/10/19 01:04:44;;;;;;;58.55;38.85;;;;;;;9.23;100.00;99711.58;2178943;82;21059;-83
2021/10/19 01:07:45;;;;;;;57.45;35.38;;;;;;;9.19;100.00;99715.95;2179043;82;20983;-83
2021/10/19 01:10:46;;;;;;;59.53;36.13;;;;;;;9.16;100.00;99714.45;2179050;82;21058;-82
2021/10/19 01:13:47;;;;;;;55.40;35.15;;;;;;;9.10;100.00;99710.63;2179103;82;20917;-83
2021/10/19 01:16:48;;;;;;;57.75;34.55;;;;;;;9.01;100.00;99709.38;2179398;82;21493;-83
2021/10/19 01:19:48;;;;;;;58.25;36.00;;;;;;;8.94;100.00;99710.42;2179201;82;21007;-81
2021/10/19 01:22:49;;;;;;;53.95;33.20;;;;;;;8.89;100.00;99713.15;2179296;82;22104;-82
2021/10/19 01:25:50;;;;;;;48.02;33.13;;;;;;;8.81;100.00;99712.56;2179213;82;20987;-81
2021/10/19 01:28:51;;;;;;;52.70;34.45;;;;;;;8.75;100.00;99710.52;2179334;82;20955;-82
2021/10/19 01:31:52;;;;;;;47.48;33.18;;;;;;;8.73;100.00;99704.62;2179447;82;20999;-80
2021/10/19 01:34:53;;;;;;;48.98;32.88;;;;;;;8.67;100.00;99701.27;2179276;82;20956;-82
2021/10/19 01:37:54;;;;;;;54.58;33.25;;;;;;;8.64;100.00;99693.73;2179189;82;20960;-82
2021/10/19 01:40:54;;;;;;;55.65;34.85;;;;;;;8.59;100.00;99700.67;2179324;82;21007;-80
2021/10/19 01:43:55;;;;;;;57.43;33.35;;;;;;;8.53;100.00;99696.03;2179701;82;21331;-80
2021/10/19 01:46:56;;;;;;;56.08;33.40;;;;;;;8.46;100.00;99702.30;2179654;82;21478;-81
2021/10/19 01:49:57;;;;;;;55.10;34.40;;;;;;;8.37;100.00;99694.50;2179341;82;20990;-82
2021/10/19 01:52:58;;;;;;;49.60;32.58;;;;;;;8.26;100.00;99685.84;2179577;82;21028;-80
2021/10/19 01:55:59;;;;;;;61.42;34.80;;;;;;;8.16;100.00;99685.53;2179409;82;20939;-82
2021/10/19 01:59:00;;;;;;;53.30;34.35;;;;;;;8.10;100.00;99688.20;2179602;82;21027;-81
2021/10/19 02:02:03;;;;;;;54.25;33.48;;;;;;;8.07;100.00;99683.76;2179077;81;21111;-82
2021/10/19 02:05:03;;;;;;;50.92;32.70;;;;;;;8.04;100.00;99677.50;2178967;82;21028;-83
2021/10/19 02:08:04;;;;;;;55.43;32.65;;;;;;;8.01;100.00;99676.00;2179057;82;21083;-81
2021/10/19 02:11:05;;;;;;;56.55;32.00;;;;;;;7.97;100.00;99668.95;2179165;82;21016;-82
2021/10/19 02:14:06;;;;;;;55.08;33.18;;;;;;;7.95;100.00;99678.70;2179003;81;21514;-81
2021/10/19 02:17:07;;;;;;;53.87;33.83;;;;;;;7.93;100.00;99674.56;2179131;82;20944;-83
2021/10/19 02:20:08;;;;;;;56.65;34.00;;;;;;;7.90;100.00;99676.98;2178809;82;21030;-80
2021/10/19 02:23:09;;;;;;;53.35;34.58;;;;;;;7.88;100.00;99675.00;2179039;81;21514;-81
2021/10/19 02:26:10;;;;;;;56.65;34.43;;;;;;;7.88;100.00;99680.70;2179285;82;21010;-81
2021/10/19 02:29:10;;;;;;;55.50;35.05;;;;;;;7.83;100.00;99673.75;2179135;82;20987;-82
2021/10/19 02:32:11;;;;;;;58.35;33.85;;;;;;;7.81;100.00;99675.20;2179387;82;21384;-82
2021/10/19 02:35:12;;;;;;;51.55;33.28;;;;;;;7.80;100.00;99674.86;2179278;81;21007;-81
2021/10/19 02:38:13;;;;;;;55.40;33.48;;;;;;;7.78;100.00;99679.41;2179247;82;20904;-81
2021/10/19 02:41:14;;;;;;;57.58;34.55;;;;;;;7.77;100.00;99673.00;2179132;82;21573;-82
2021/10/19 02:44:14;;;;;;;62.25;33.88;;;;;;;7.76;100.00;99672.17;2179177;82;20904;-83
2021/10/19 02:47:15;;;;;;;53.75;33.42;;;;;;;7.75;100.00;99677.53;2179413;82;21526;-83
2021/10/19 02:50:16;;;;;;;52.83;33.73;;;;;;;7.76;100.00;99676.08;2179393;82;21011;-82
2021/10/19 02:53:17;;;;;;;58.45;34.65;;;;;;;7.77;100.00;99673.00;2179153;82;20904;-82
2021/10/19 02:56:18;;;;;;;56.88;33.48;;;;;;;7.78;100.00;99682.01;2179284;82;20975;-81
2021/10/19 02:59:18;;;;;;;55.90;32.95;;;;;;;7.72;100.00;99664.30;2179314;82;21015;-82
2021/10/19 03:02:19;;;;;;;54.30;33.60;;;;;;;7.72;100.00;99664.30;2179065;80;20976;-83
2021/10/19 03:05:20;;;;;;;53.42;33.65;;;;;;;7.76;100.00;99674.78;2179388;82;21079;-81
2021/10/19 03:08:22;;;;;;;51.20;32.90;;;;;;;7.76;100.00;99678.69;2179107;82;20988;-84
2021/10/19 03:11:23;;;;;;;56.25;34.10;;;;;;;7.73;100.00;99670.34;2179193;81;21008;-81
2021/10/19 03:14:24;;;;;;;50.63;31.85;;;;;;;7.74;100.00;99668.89;2179369;82;21060;-81
2021/10/19 03:17:25;;;;;;;68.02;40.75;;;;;;;7.77;100.00;99673.00;2179217;82;20948;-81
2021/10/19 03:20:26;;;;;;;75.80;45.15;;;;;;;7.77;100.00;99664.69;2179606;82;21043;-80
2021/10/19 03:23:27;;;;;;;52.60;34.85;;;;;;;7.79;100.00;99664.09;2178793;82;20968;-81
2021/10/19 03:26:27;;;;;;;49.75;31.30;;;;;;;7.79;100.00;99668.01;2179158;82;21002;-82
2021/10/19 03:29:28;;;;;;;46.83;31.37;;;;;;;7.80;100.00;99668.34;2179222;82;20963;-81
2021/10/19 03:32:30;;;;;;;51.50;31.35;;;;;;;7.79;100.00;99668.01;2178965;82;21154;-79
2021/10/19 03:35:30;;;;;;;47.70;30.15;;;;;;;7.79;100.00;99666.70;2179133;82;21031;-80
2021/10/19 03:38:31;;;;;;;49.25;31.10;;;;;;;7.78;100.00;99664.23;2178870;82;20988;-81
2021/10/19 03:41:32;;;;;;;47.67;29.40;;;;;;;7.80;100.00;99660.52;2178804;82;21027;-81
2021/10/19 03:44:33;;;;;;;49.83;29.72;;;;;;;7.79;100.00;99664.58;2178832;82;21011;-81
2021/10/19 03:47:34;;;;;;;42.83;28.40;;;;;;;7.74;100.00;99661.06;2179027;82;21050;-81
2021/10/19 03:50:35;;;;;;;39.75;28.32;;;;;;;7.74;100.00;99661.06;2179063;82;20952;-83
2021/10/19 03:53:37;;;;;;;45.38;28.12;;;;;;;7.76;100.00;99666.14;2179021;82;20960;-80
2021/10/19 03:56:38;;;;;;;44.45;28.90;;;;;;;7.72;100.00;99663.48;2179326;81;21582;-80
2021/10/19 03:59:39;;;;;;;49.90;28.85;;;;;;;7.71;100.00;99666.56;2179072;82;21044;-80
2021/10/19 04:02:40;;;;;;;50.80;29.65;;;;;;;7.68;100.00;99659.85;2178937;81;21043;-80
2021/10/19 04:05:41;;;;;;;43.83;28.45;;;;;;;7.66;100.00;99666.14;2179163;82;21070;-79
2021/10/19 04:08:42;;;;;;;52.08;27.13;;;;;;;7.62;100.00;99664.78;2179057;82;20992;-80
2021/10/19 04:11:43;;;;;;;45.38;29.02;;;;;;;7.56;100.00;99672.66;2179321;82;20948;-80
2021/10/19 04:14:44;;;;;;;45.03;29.30;;;;;;;7.48;100.00;99663.39;2179117;82;20994;-82
2021/10/19 04:17:44;;;;;;;47.45;31.82;;;;;;;7.43;100.00;99668.70;2145309;82;20963;-80
2021/10/19 04:20:45;;;;;;;49.40;30.52;;;;;;;7.37;100.00;99672.66;2142095;83;21393;-82
2021/10/19 04:23:47;;;;;;;43.73;29.65;;;;;;;7.34;100.00;99687.27;2141892;83;21062;-81
2021/10/19 04:26:47;;;;;;;46.18;29.80;;;;;;;7.32;100.00;99682.19;2141994;83;21043;-82
2021/10/19 04:29:48;;;;;;;45.03;28.20;;;;;;;7.33;100.00;99683.02;2144143;82;20970;-83
2021/10/19 04:32:49;;;;;;;46.70;29.15;;;;;;;7.37;100.00;99681.29;2141997;83;20975;-83
2021/10/19 04:35:50;;;;;;;46.95;28.42;;;;;;;7.38;100.00;99682.94;2141993;83;21042;-79
2021/10/19 04:38:51;;;;;;;44.55;28.17;;;;;;;7.41;100.00;99680.56;2143748;82;21373;-81
2021/10/19 04:41:51;;;;;;;43.75;29.00;;;;;;;7.49;100.00;99679.85;2167119;82;21486;-86
2021/10/19 04:44:52;;;;;;;41.63;28.27;;;;;;;7.56;100.00;99681.78;2176099;82;20976;-86
2021/10/19 04:47:55;;;;;;;45.35;29.77;;;;;;;7.61;100.00;99680.91;2177495;82;20952;-81
2021/10/19 04:50:56;;;;;;;44.60;27.48;;;;;;;7.66;100.00;99683.09;2177701;80;21365;-87
2021/10/19 04:53:56;;;;;;;47.00;28.23;;;;;;;7.72;100.00;99683.03;2177496;82;21052;-87
2021/10/19 04:56:57;;;;;;;43.38;27.58;;;;;;;7.78;100.00;99684.61;2179415;81;20937;-88
2021/10/19 04:59:58;;;;;;;44.45;26.87;;;;;;;7.81;100.00;99683.50;2179111;82;20999;-82
2021/10/19 05:02:59;;;;;;;52.13;33.00;;;;;;;7.85;100.00;99688.30;2164986;81;21063;-85
2021/10/19 05:06:00;;;;;;;53.80;33.13;;;;;;;7.88;100.00;99687.22;2161400;82;20992;-86
2021/10/19 05:09:09;;;;;;;54.48;30.20;;;;;;;7.92;100.00;99691.17;2161296;82;20987;-82
2021/10/19 05:12:14;;;;;;;45.33;29.40;;;;;;;7.97;100.00;99688.51;2047145;86;21073;-77
2021/10/19 05:15:15;;;;;;;53.75;29.45;;;;;;;8.04;100.00;99686.14;2029421;87;21096;-86
2021/10/19 05:18:16;;;;;;;46.55;28.62;;;;;;;8.06;100.00;99685.55;2029480;88;21572;-81
2021/10/19 05:21:17;;;;;;;44.33;29.42;;;;;;;8.11;100.00;99689.84;2029456;88;20998;-81
2021/10/19 05:24:18;;;;;;;44.45;29.60;;;;;;;8.12;100.00;99685.45;2029456;88;21005;-81
2021/10/19 05:27:18;;;;;;;44.63;27.75;;;;;;;8.15;100.00;99679.97;2029532;88;21029;-80
2021/10/19 05:30:20;;;;;;;46.20;28.47;;;;;;;8.21;100.00;99686.73;2033695;86;21018;-81
2021/10/19 05:33:21;;;;;;;42.75;27.85;;;;;;;8.23;100.00;99677.00;2033522;86;21054;-81
2021/10/19 05:36:22;;;;;;;43.38;26.82;;;;;;;8.27;100.00;99684.88;2029392;88;21033;-80
2021/10/19 05:39:23;;;;;;;44.90;28.00;;;;;;;8.35;100.00;99687.30;2029465;88;21492;-80
2021/10/19 05:42:24;;;;;;;42.73;29.35;;;;;;;8.38;100.00;99693.53;2096277;82;20997;-81
2021/10/19 05:45:25;;;;;;;46.73;30.52;;;;;;;8.41;100.00;99703.67;2157278;82;20973;-81
2021/10/19 05:48:26;;;;;;;52.95;29.98;;;;;;;8.42;100.00;99703.56;2159082;82;20999;-81
2021/10/19 05:51:26;;;;;;;49.65;28.75;;;;;;;8.47;100.00;99697.41;2160774;82;21075;-81
2021/10/19 05:54:27;;;;;;;48.40;30.60;;;;;;;8.52;100.00;99698.31;2142191;82;20964;-81
2021/10/19 05:57:28;;;;;;;46.25;27.90;;;;;;;8.57;100.00;99699.17;2131073;82;20968;-80
2021/10/19 06:00:29;;;;;;;48.45;28.95;;;;;;;8.59;100.00;99688.92;2160921;82;20937;-81
2021/10/19 06:03:30;;;;;;;50.23;28.65;;;;;;;8.61;100.00;99694.02;2155235;81;21634;-81
2021/10/19 06:06:31;;;;;;;47.73;28.55;;;;;;;8.69;100.00;99695.44;2124552;84;20988;-81
2021/10/19 06:09:32;;;;;;;55.75;30.72;;;;;;;8.74;100.00;99701.03;2124993;84;21039;-84
2021/10/19 06:12:33;;;;;;;48.68;29.15;;;;;;;8.83;100.00;99706.70;2124507;84;21000;-80
2021/10/19 06:15:33;;;;;;;42.13;28.02;;;;;;;8.95;100.00;99709.94;2124334;84;20996;-80
2021/10/19 06:18:34;;;;;;;44.77;27.77;;;;;;;9.00;100.00;99705.12;2124453;84;21139;-80
2021/10/19 06:21:35;;;;;;;48.58;28.73;;;;;;;9.02;100.00;99700.56;2124564;84;21040;-81
2021/10/19 06:24:36;;;;;;;39.83;25.40;;;;;;;9.10;100.00;99696.74;2124391;84;21127;-80
2021/10/19 06:27:37;;;;;;;40.00;24.45;;;;;;;9.21;100.00;99696.53;2159377;82;21607;-83
2021/10/19 06:30:38;;;;;;;40.15;25.97;;;;;;;9.28;100.00;99695.47;2136189;82;21103;-82
2021/10/19 06:33:39;;;;;;;37.58;23.35;;;;;;;9.33;100.00;99700.61;2161234;82;20988;-84
2021/10/19 06:36:48;;;;;;;39.95;25.17;;;;;;;9.43;100.00;99697.11;2156762;82;21087;-80
2021/10/19 06:39:48;;;;;;;43.70;26.40;;;;;;;9.52;100.00;99701.44;2124300;84;21131;-84
2021/10/19 06:42:49;;;;;;;42.88;26.95;;;;;;;9.60;100.00;99699.73;2124590;82;21064;-83
2021/10/19 06:45:50;;;;;;;40.65;25.55;;;;;;;9.65;100.00;99705.80;2124401;84;21022;-82
2021/10/19 06:48:52;;;;;;;38.10;24.75;;;;;;;9.68;100.00;99706.80;2124615;84;21068;-83
2021/10/19 06:51:55;;;;;;;38.55;23.92;;;;;;;9.75;100.00;99701.80;2123746;83;21102;-88
2021/10/19 06:54:57;;;;;;;41.35;24.65;;;;;;;9.73;100.00;99691.50;2126698;82;21059;-85
2021/10/19 06:57:58;;;;;;;39.50;24.27;;;;;;;9.76;100.00;99691.19;2125176;84;21634;-87
2021/10/19 07:01:02;;;;;;;42.33;25.20;;;;;;;9.80;100.00;99696.95;2125147;84;21547;-83
2021/10/19 07:04:05;;;;;;;44.13;24.30;;;;;;;9.94;100.00;99695.91;2125191;82;21578;-86
2021/10/19 07:07:07;;;;;;;41.68;24.25;;;;;;;10.14;100.00;99693.93;2136355;82;21079;-85
2021/10/19 07:10:08;;;;;;;35.25;21.17;;;;;;;10.36;100.00;99687.91;2161401;82;21063;-86
2021/10/19 07:13:09;;;;;;;29.98;21.12;;;;;;;10.60;100.00;99686.72;2161177;82;21467;-87
2021/10/19 07:16:10;;;;;;;31.33;19.05;;;;;;;10.93;100.00;99684.26;2161048;82;21054;-86
2021/10/19 07:19:14;;;;;;;31.27;20.05;;;;;;;11.22;100.00;99680.74;2161287;82;21059;-86
2021/10/19 07:22:14;;;;;;;25.40;17.92;;;;;;;11.55;100.00;99680.81;2161120;82;21067;-86
2021/10/19 07:25:15;;;;;;;23.77;17.27;;;;;;;11.73;100.00;99667.06;2151756;82;20976;-82
2021/10/19 07:28:18;;;;;;;26.60;15.58;;;;;;;11.94;100.00;99685.78;2124750;82;21034;-81
2021/10/19 07:31:19;;;;;;;27.25;18.40;;;;;;;12.04;100.00;99686.92;2124599;84;21003;-85
2021/10/19 07:34:23;;;;;;;31.50;16.05;;;;;;;12.12;100.00;99693.48;2126789;82;20980;-87
2021/10/19 07:37:23;;;;;;;27.02;16.60;;;;;;;12.25;100.00;99698.21;2087927;85;21490;-87
2021/10/19 07:40:24;;;;;;;24.05;15.83;;;;;;;12.37;100.00;99696.90;2124157;84;21007;-86
2021/10/19 07:43:28;;;;;;;22.17;14.38;;;;;;;12.52;100.00;99699.14;2124925;84;20995;-80
2021/10/19 07:46:30;;;;;;;24.00;14.98;;;;;;;12.74;100.00;99690.23;2125146;83;21561;-90
2021/10/19 07:49:31;;;;;;;23.80;14.83;;;;;;;12.87;100.00;99684.43;2126520;84;21007;-81
2021/10/19 07:52:32;;;;;;;19.65;14.33;;;;;;;12.94;100.00;99685.39;2126084;84;21004;-88
2021/10/19 07:55:33;;;;;;;22.70;13.60;;;;;;;12.97;100.00;99675.84;2143821;82;21027;-88
2021/10/19 07:58:34;;;;;;;21.05;14.50;;;;;;;12.98;100.00;99675.66;2157622;82;21555;-89
2021/10/19 08:01:36;;;;;;;21.70;13.88;;;;;;;13.01;100.00;99679.78;2157971;82;21335;-89
2021/10/19 08:04:37;;;;;;;20.25;14.00;;;;;;;12.98;100.00;99682.73;2132777;83;20990;-88
2021/10/19 08:07:38;;;;;;;22.80;16.07;;;;;;;12.99;100.00;99681.77;2152490;83;21539;-88
2021/10/19 08:10:39;;;;;;;21.87;14.25;;;;;;;12.99;100.00;99681.27;2132624;83;21062;-88
2021/10/19 08:13:39;;;;;;;24.60;12.73;;;;;;;13.03;100.00;99676.48;2152614;83;20973;-88
2021/10/19 08:16:41;;;;;;;21.10;12.88;;;;;;;13.08;100.00;99679.42;2135722;83;21017;-89
2021/10/19 08:19:41;;;;;;;20.15;12.37;;;;;;;13.10;100.00;99669.55;2150926;82;21536;-87
2021/10/19 08:22:43;;;;;;;18.10;12.65;;;;;;;13.18;100.00;99669.50;2170117;82;21048;-87
2021/10/19 08:25:44;;;;;;;19.30;11.33;;;;;;;13.28;100.00;99673.27;2109951;84;21026;-87
2021/10/19 08:28:47;;;;;;;16.10;11.70;;;;;;;13.32;100.00;99674.04;2142201;83;20958;-88
2021/10/19 08:31:48;;;;;;;21.10;10.90;;;;;;;13.39;100.00;99680.75;2141987;83;22059;-88
2021/10/19 08:34:49;;;;;;;18.27;11.63;;;;;;;13.57;100.00;99690.49;2141895;83;21051;-89
2021/10/19 08:37:50;;;;;;;19.37;10.55;;;;;;;13.69;100.00;99694.03;2141885;83;20971;-88
2021/10/19 08:40:51;;;;;;;18.67;11.15;;;;;;;13.79;100.00;99691.97;2143761;82;20998;-87
2021/10/19 08:43:52;;;;;;;13.32;10.38;;;;;;;14.02;100.00;99698.05;2141891;83;21061;-88
2021/10/19 08:46:55;;;;;;;18.87;10.68;;;;;;;14.20;100.00;99698.55;2141719;83;21768;-88
2021/10/19 08:49:56;;;;;;;14.20;9.73;;;;;;;14.36;100.00;99699.40;2142085;83;21007;-84
2021/10/19 08:52:57;;;;;;;12.23;9.58;;;;;;;14.55;100.00;99708.62;2175968;82;21063;-88
2021/10/19 08:55:58;;;;;;;14.55;9.75;;;;;;;14.65;100.00;99718.39;2178679;82;21046;-88
2021/10/19 08:59:00;;;;;;;13.25;9.75;;;;;;;14.74;100.00;99718.63;2176726;81;21005;-87
2021/10/19 09:02:01;;;;;;;14.10;8.90;;;;;;;14.85;100.00;99711.57;2177174;80;21015;-87
2021/10/19 09:05:01;;;;;;;14.93;9.90;;;;;;;14.90;100.00;99705.73;2160728;82;21023;-87
2021/10/19 09:08:03;;;;;;;13.68;9.35;;;;;;;15.01;100.00;99711.37;2158564;82;21602;-88
2021/10/19 09:11:04;;;;;;;13.60;8.13;;;;;;;15.15;100.00;99712.84;2160871;82;21107;-88
2021/10/19 09:14:05;;;;;;;11.80;7.85;;;;;;;15.25;100.00;99705.45;2160970;82;20984;-88
2021/10/19 09:17:08;;;;;;;15.35;8.65;;;;;;;15.29;100.00;99709.38;2160953;82;21031;-87
2021/10/19 09:20:09;;;;;;;10.70;7.87;;;;;;;15.29;100.00;99702.28;2160796;82;21004;-87
2021/10/19 09:23:12;;;;;;;14.83;9.08;;;;;;;15.21;99.95;99706.34;2160739;82;21094;-87
2021/10/19 09:26:14;;;;;;;13.65;7.42;;;;;;;15.13;99.56;99701.67;2158074;82;20984;-87
2021/10/19 09:29:15;;;;;;;15.43;8.13;;;;;;;15.05;99.32;99696.81;2160678;82;21491;-88
2021/10/19 09:32:16;;;;;;;10.32;7.20;;;;;;;14.97;99.01;99693.45;2160480;82;21095;-88
2021/10/19 09:35:18;;;;;;;12.30;8.18;;;;;;;14.95;99.12;99687.55;2161088;82;21000;-88
2021/10/19 09:38:19;;;;;;;10.18;8.68;;;;;;;14.94;99.18;99689.37;2160994;82;21067;-87
2021/10/19 09:41:20;;;;;;;12.10;8.10;;;;;;;14.97;98.21;99685.55;2138685;82;21016;-86
2021/10/19 09:44:21;;;;;;;12.37;8.08;;;;;;;15.08;98.70;99686.38;2124437;84;21050;-87
2021/10/19 09:47:22;;;;;;;13.65;9.33;;;;;;;15.18;97.76;99683.45;2132071;82;22063;-87
2021/10/19 09:50:23;;;;;;;17.37;10.13;;;;;;;15.21;96.41;99678.64;2161208;82;21068;-88
2021/10/19 09:53:25;;;;;;;18.55;10.48;;;;;;;15.34;96.73;99671.36;2153114;82;21110;-88
2021/10/19 09:56:26;;;;;;;15.58;9.03;;;;;;;15.46;96.04;99665.92;2087440;85;21750;-89
2021/10/19 09:59:27;;;;;;;13.00;8.68;;;;;;;15.50;95.16;99656.61;2088303;85;21028;-88
2021/10/19 10:02:28;;;;;;;14.25;7.92;;;;;;;15.53;95.04;99648.81;2144216;81;21103;-86
2021/10/19 10:05:29;;;;;;;13.90;7.90;;;;;;;15.54;94.99;99638.56;2158899;82;21044;-87
2021/10/19 10:08:31;;;;;;;13.83;8.00;;;;;;;15.58;94.75;99633.23;2144897;82;21023;-87
2021/10/19 10:11:32;;;;;;;25.82;15.43;;;;;;;15.64;94.68;99622.78;2124462;82;21012;-87
2021/10/19 10:14:33;;;;;;;12.13;7.85;;;;;;;15.67;93.28;99621.58;2124488;84;21019;-87
2021/10/19 10:17:34;;;;;;;8.13;6.33;;;;;;;15.73;92.46;99620.01;2124112;84;21388;-87
2021/10/19 10:20:35;;;;;;;8.28;6.58;;;;;;;15.75;91.49;99616.16;2123997;84;20964;-87
2021/10/19 10:23:36;;;;;;;9.05;7.35;;;;;;;15.83;91.64;99617.85;2124006;84;21027;-88
2021/10/19 10:26:39;;;;;;;7.62;5.95;;;;;;;15.93;91.83;99613.05;2124146;84;20999;-88
2021/10/19 10:29:42;;;;;;;7.55;4.75;;;;;;;15.98;90.42;99611.95;2099851;84;21571;-88
2021/10/19 10:32:43;;;;;;;8.48;5.30;;;;;;;16.04;90.05;99604.59;2124975;84;21128;-89
2021/10/19 10:35:44;;;;;;;7.65;4.25;;;;;;;16.08;89.22;99603.69;2083970;85;21011;-89
2021/10/19 10:38:46;;;;;;;7.78;4.62;;;;;;;16.13;88.33;99597.33;2088424;85;21016;-88
2021/10/19 10:41:47;;;;;;;5.08;4.58;;;;;;;16.19;87.76;99604.49;2134745;82;21062;-88
2021/10/19 10:44:48;;;;;;;7.87;6.62;;;;;;;16.30;87.64;99601.80;2160876;82;21019;-89
2021/10/19 10:47:50;;;;;;;8.18;5.45;;;;;;;16.39;86.88;99601.95;2160923;82;20992;-89
2021/10/19 10:50:51;;;;;;;7.62;4.60;;;;;;;16.48;86.01;99597.63;2143490;82;21004;-89
2021/10/19 10:53:52;;;;;;;11.03;8.15;;;;;;;16.55;85.89;99592.38;2124398;84;21038;-90
2021/10/19 10:56:53;;;;;;;12.85;11.38;;;;;;;16.65;85.24;99594.16;2100013;84;20995;-89
2021/10/19 10:59:55;;;;;;;14.65;12.98;;;;;;;16.78;84.34;99594.73;2124516;84;21070;-88
2021/10/19 11:02:56;;;;;;;12.70;11.00;;;;;;;16.85;83.53;99585.50;2131931;82;21365;-88
2021/10/19 11:05:57;;;;;;;8.70;7.85;;;;;;;16.92;83.39;99582.37;2142629;83;21046;-88
2021/10/19 11:08:58;;;;;;;7.53;6.15;;;;;;;16.95;81.95;99580.14;2142572;83;21070;-89
2021/10/19 11:11:59;;;;;;;9.53;6.10;;;;;;;17.00;80.69;99575.55;2142642;83;20999;-88
2021/10/19 11:15:01;;;;;;;8.00;6.00;;;;;;;17.04;80.75;99574.16;2148828;82;21049;-88
2021/10/19 11:18:03;;;;;;;7.60;5.05;;;;;;;17.06;81.86;99561.53;2142948;82;21014;-89
2021/10/19 11:21:04;;;;;;;8.03;5.87;;;;;;;17.08;81.48;99562.66;2142553;83;20963;-86
2021/10/19 11:24:05;;;;;;;7.70;5.35;;;;;;;17.08;81.71;99569.27;2142914;82;21470;-86
2021/10/19 11:27:06;;;;;;;9.85;6.00;;;;;;;17.10;79.75;99563.27;2142506;83;20998;-87
2021/10/19 11:30:07;;;;;;;11.10;6.17;;;;;;;17.12;79.87;99559.42;2142532;83;21537;-87
2021/10/19 11:33:09;;;;;;;10.93;6.00;;;;;;;17.15;79.16;99559.52;2144496;82;21568;-86
2021/10/19 11:36:10;;;;;;;6.53;5.22;;;;;;;17.17;78.87;99555.64;2169308;82;20931;-86
2021/10/19 11:39:12;;;;;;;8.45;4.55;;;;;;;17.16;77.91;99561.95;2179863;82;21011;-86
2021/10/19 11:42:13;;;;;;;6.17;3.92;;;;;;;17.20;77.99;99554.45;2179577;81;21466;-87
2021/10/19 11:45:14;;;;;;;8.90;5.45;;;;;;;17.26;77.13;99554.94;2179441;82;21091;-87
2021/10/19 11:48:15;;;;;;;12.15;7.17;;;;;;;17.30;78.10;99558.83;2179637;82;21024;-88
2021/10/19 11:51:18;;;;;;;6.22;5.62;;;;;;;17.34;76.73;99552.11;2178706;82;21487;-84
2021/10/19 11:54:19;;;;;;;6.47;5.03;;;;;;;17.33;75.70;99541.22;2142796;83;21505;-88
2021/10/19 11:57:20;;;;;;;8.50;4.55;;;;;;;17.31;75.71;99540.61;2142753;83;21091;-85
2021/10/19 12:00:22;;;;;;;11.45;5.70;;;;;;;17.27;75.36;99538.86;2142841;82;21003;-85
2021/10/19 12:03:32;;;;;;;10.70;7.50;;;;;;;17.30;75.71;99531.05;2138233;83;21043;-84
2021/10/19 12:06:28;;;;;;;7.20;5.20;;;;;;;17.35;75.73;99531.23;2122129;83;21023;-85
2021/10/19 12:09:29;;;;;;;6.62;4.42;;;;;;;17.40;75.62;99522.19;2125211;84;20996;-83
2021/10/19 12:12:32;;;;;;;5.20;4.37;;;;;;;17.40;75.07;99518.73;2124092;83;21130;-84
2021/10/19 12:15:33;;;;;;;6.10;4.03;;;;;;;17.44;74.72;99508.02;2157027;82;20928;-83
2021/10/19 12:18:38;;;;;;;7.05;4.00;;;;;;;17.48;75.02;99507.42;2161970;82;21020;-86
2021/10/19 12:21:37;;;;;;;4.83;3.77;;;;;;;17.54;73.68;99500.47;2160168;82;21498;-87
2021/10/19 12:24:38;;;;;;;5.42;3.72;;;;;;;17.54;73.11;99488.05;2160855;82;21035;-86
2021/10/19 12:27:40;;;;;;;4.47;4.00;;;;;;;17.52;74.09;99479.50;2130223;82;21452;-88
2021/10/19 12:30:41;;;;;;;11.60;6.08;;;;;;;17.51;73.81;99492.44;2124162;84;21047;-87
2021/10/19 12:33:42;;;;;;;8.45;5.58;;;;;;;17.53;73.65;99483.78;2088526;85;21085;-87
2021/10/19 12:36:43;;;;;;;10.00;5.15;;;;;;;17.52;71.67;99485.31;2124219;84;21071;-87
2021/10/19 12:39:43;;;;;;;5.55;4.03;;;;;;;17.47;71.11;99476.68;2143249;82;22200;-87
2021/10/19 12:42:44;;;;;;;4.20;3.77;;;;;;;17.41;71.74;99464.77;2160353;82;21554;-89
2021/10/19 12:45:48;;;;;;;4.35;3.27;;;;;;;17.35;71.49;99465.06;2144588;81;20964;-88
2021/10/19 12:48:49;;;;;;;5.00;3.35;;;;;;;17.28;72.27;99469.54;2176598;81;21055;-88
2021/10/19 12:51:50;;;;;;;4.90;3.60;;;;;;;17.14;71.44;99473.22;2160731;82;21063;-87
2021/10/19 12:54:53;;;;;;;4.75;3.67;;;;;;;16.98;71.13;99479.20;2160906;82;21012;-86
2021/10/19 12:57:53;;;;;;;4.42;3.42;;;;;;;16.87;71.63;99482.45;2129700;82;21040;-86
2021/10/19 13:00:54;;;;;;;5.67;3.10;;;;;;;16.76;71.83;99465.87;2124293;84;20987;-89
2021/10/19 13:03:56;;;;;;;6.03;3.90;;;;;;;16.64;71.71;99459.48;2122812;83;21429;-88
2021/10/19 13:07:01;;;;;;;6.22;3.83;;;;;;;16.50;72.15;99453.38;2122138;84;21104;-87
2021/10/19 13:10:00;;;;;;;8.35;5.67;;;;;;;16.43;72.88;99451.21;2134596;82;21666;-87
2021/10/19 13:13:01;;;;;;;10.23;7.33;;;;;;;16.45;73.53;99446.02;2158463;82;20980;-87
2021/10/19 13:16:01;;;;;;;14.63;7.75;;;;;;;16.48;73.11;99429.78;2156594;82;20983;-86
2021/10/19 13:19:02;;;;;;;12.58;7.35;;;;;;;16.54;73.83;99431.30;2140664;81;21043;-88
2021/10/19 13:22:03;;;;;;;12.75;7.22;;;;;;;16.60;74.39;99431.33;2109887;84;20996;-87
2021/10/19 13:25:04;;;;;;;7.45;4.20;;;;;;;16.63;74.13;99419.02;2174171;82;20958;-88
2021/10/19 13:28:04;;;;;;;5.75;4.37;;;;;;;16.61;73.44;99423.70;2170814;82;20976;-83
2021/10/19 13:31:08;;;;;;;7.35;4.17;;;;;;;16.58;74.10;99413.53;2161298;82;21006;-84
2021/10/19 13:34:11;;;;;;;7.12;4.85;;;;;;;16.57;73.92;99415.06;2135967;82;21020;-84
2021/10/19 13:37:11;;;;;;;8.33;5.45;;;;;;;16.56;74.37;99416.89;2160958;82;21020;-84
2021/10/19 13:40:13;;;;;;;10.68;7.17;;;;;;;16.53;74.44;99406.70;2161110;82;21095;-83
2021/10/19 13:43:13;;;;;;;13.78;7.53;;;;;;;16.44;73.81;99414.00;2161132;82;21051;-83
2021/10/19 13:46:14;;;;;;;12.88;7.08;;;;;;;16.32;74.41;99417.44;2160951;82;21022;-85
2021/10/19 13:49:17;;;;;;;8.78;5.47;;;;;;;16.16;74.65;99419.42;2133273;82;21011;-84
2021/10/19 13:52:18;;;;;;;9.73;5.42;;;;;;;15.98;74.64;99413.86;2124626;84;21609;-84
2021/10/19 13:55:18;;;;;;;9.23;6.22;;;;;;;15.83;75.17;99411.89;2125356;82;21031;-84